Time;durP1;ratioP1;P1;durP2;ratioP2;P2;SDS_P1;SDS_P2;PMS_P1;PMS_P2;Temp;Humidity;BMP_temperature;BMP_pressure;BME280_temperature;BME280_humidity;BME280_pressure;Samples;Min_cycle;Max_cycle;Signal;HPM_P1;HPM_P2
2024/03/31 00:00:34;;;;;;;9.50;3.10;;;;;;;13.83;100.00;99416.16;104566;1256;68367;-56
2024/03/31 00:03:02;;;;;;;5.30;3.10;;;;;;;13.80;100.00;99416.01;104809;1256;72559;-56
2024/03/31 00:05:29;;;;;;;9.40;3.20;;;;;;;13.78;100.00;99414.83;105054;1254;63784;-56
2024/03/31 00:07:57;;;;;;;8.30;3.80;;;;;;;13.79;100.00;99415.48;104813;1257;60456;-56
2024/03/31 00:10:25;;;;;;;8.60;3.60;;;;;;;13.79;100.00;99417.98;104859;1251;73587;-56
2024/03/31 00:12:52;;;;;;;6.40;3.10;;;;;;;13.79;100.00;99420.82;104528;1270;69822;-56
2024/03/31 00:15:20;;;;;;;7.60;3.70;;;;;;;13.76;100.00;99418.67;104595;1257;72426;-57
2024/03/31 00:17:50;;;;;;;11.30;3.40;;;;;;;13.67;100.00;99422.07;104699;1254;60868;-57
2024/03/31 00:20:17;;;;;;;8.40;3.60;;;;;;;13.67;100.00;99426.98;104417;1256;60582;-57
2024/03/31 00:22:46;;;;;;;6.40;3.10;;;;;;;13.62;100.00;99422.80;104708;1252;73754;-56
2024/03/31 00:25:14;;;;;;;7.30;2.90;;;;;;;13.64;100.00;99425.74;104565;1257;69176;-57
2024/03/31 00:27:41;;;;;;;12.00;3.50;;;;;;;13.60;100.00;99426.30;104581;1265;72527;-56
2024/03/31 00:30:09;;;;;;;6.50;3.70;;;;;;;13.57;100.00;99426.86;104919;1251;61427;-57
2024/03/31 00:32:36;;;;;;;;;;;;;;;13.55;100.00;99428.19;104585;1251;60457;-57
2024/03/31 00:35:04;;;;;;;7.30;3.00;;;;;;;13.41;100.00;99426.55;104726;1254;73684;-57
2024/03/31 00:37:32;;;;;;;5.70;3.00;;;;;;;13.37;100.00;99424.98;104801;1253;69197;-56
2024/03/31 00:39:59;;;;;;;6.00;2.90;;;;;;;13.35;100.00;99427.97;104443;1254;72382;-56
2024/03/31 00:42:27;;;;;;;8.30;3.10;;;;;;;13.34;100.00;99425.73;104586;1255;61364;-56
2024/03/31 00:44:54;;;;;;;7.10;2.80;;;;;;;13.34;100.00;99425.36;104838;1267;59833;-57
2024/03/31 00:47:22;;;;;;;4.30;3.00;;;;;;;13.30;100.00;99424.67;105134;1256;73674;-57
2024/03/31 00:49:50;;;;;;;11.50;3.40;;;;;;;13.29;100.00;99421.39;104561;1254;69472;-57
2024/03/31 00:52:17;;;;;;;4.20;2.70;;;;;;;13.23;100.00;99418.02;105308;1253;72489;-57
2024/03/31 00:54:45;;;;;;;6.90;2.80;;;;;;;13.24;100.00;99418.66;104622;1257;61373;-57
2024/03/31 00:57:12;;;;;;;5.50;3.10;;;;;;;13.17;100.00;99421.86;104696;1258;60680;-59
2024/03/31 00:59:40;;;;;;;8.30;3.10;;;;;;;13.10;100.00;99425.80;104883;1257;73714;-56
2024/03/31 01:02:07;;;;;;;9.50;3.60;;;;;;;13.13;100.00;99420.40;104626;1257;70495;-56
2024/03/31 01:04:35;;;;;;;9.30;3.20;;;;;;;13.18;100.00;99420.41;104697;1268;73404;-56
2024/03/31 01:07:03;;;;;;;10.40;3.60;;;;;;;13.19;100.00;99421.63;104825;1256;61346;-56
2024/03/31 01:09:31;;;;;;;8.70;3.10;;;;;;;13.20;100.00;99419.41;104566;1251;60495;-56
2024/03/31 01:11:58;;;;;;;7.90;3.00;;;;;;;13.17;100.00;99418.18;104448;1257;73821;-56
2024/03/31 01:14:26;;;;;;;10.10;3.00;;;;;;;13.12;100.00;99416.20;104769;1260;69613;-57
2024/03/31 01:16:53;;;;;;;8.60;3.10;;;;;;;13.11;100.00;99416.23;104913;1258;71638;-57
2024/03/31 01:19:21;;;;;;;9.10;3.10;;;;;;;13.12;100.00;99418.33;104682;1256;61397;-57
2024/03/31 01:21:48;;;;;;;7.00;3.20;;;;;;;13.11;100.00;99418.39;104823;1254;60502;-57
2024/03/31 01:24:16;;;;;;;6.40;3.10;;;;;;;13.13;100.00;99417.38;104572;1257;73600;-58
2024/03/31 01:26:43;;;;;;;9.10;3.30;;;;;;;13.17;100.00;99422.80;105421;1252;69783;-57
2024/03/31 01:29:11;;;;;;;8.20;3.50;;;;;;;13.13;100.00;99424.95;104507;1257;72442;-58
2024/03/31 01:31:40;;;;;;;6.40;3.70;;;;;;;13.09;100.00;99426.27;104513;1251;61476;-57
2024/03/31 01:34:07;;;;;;;6.80;3.40;;;;;;;13.03;100.00;99428.70;104673;1262;59368;-57
2024/03/31 01:36:35;;;;;;;10.80;3.70;;;;;;;13.00;100.00;99429.71;105039;1257;72620;-54
2024/03/31 01:39:02;;;;;;;9.90;3.40;;;;;;;13.03;100.00;99428.66;104822;1256;68444;-57
2024/03/31 01:41:32;;;;;;;5.70;3.30;;;;;;;12.96;100.00;99428.04;104414;1266;72920;-57
2024/03/31 01:43:59;;;;;;;9.20;3.20;;;;;;;13.00;100.00;99431.67;105049;1254;61401;-55
2024/03/31 01:46:27;;;;;;;6.00;3.40;;;;;;;12.93;100.00;99430.81;104859;1253;61290;-55
2024/03/31 01:48:54;;;;;;;8.30;4.10;;;;;;;12.94;100.00;99429.16;104579;1257;73835;-55
2024/03/31 01:51:22;;;;;;;7.80;3.00;;;;;;;12.93;100.00;99432.21;104461;1254;69113;-55
2024/03/31 01:53:49;;;;;;;6.40;3.40;;;;;;;12.86;100.00;99433.83;104709;1271;72388;-57
2024/03/31 01:56:17;;;;;;;8.50;3.90;;;;;;;12.79;100.00;99434.40;104355;1256;61800;-59
2024/03/31 01:58:44;;;;;;;9.20;4.20;;;;;;;12.80;100.00;99431.52;104383;1269;60830;-55
2024/03/31 02:01:12;;;;;;;11.30;3.70;;;;;;;12.77;100.00;99436.28;104572;1253;74881;-56
2024/03/31 02:03:39;;;;;;;8.80;3.70;;;;;;;12.77;100.00;99438.72;104716;1259;69591;-56
2024/03/31 02:06:10;;;;;;;;;;;;;;;12.79;100.00;99438.95;104364;1259;72503;-56
2024/03/31 02:08:38;;;;;;;8.40;3.80;;;;;;;12.80;100.00;99440.52;104558;1259;62344;-56
2024/03/31 02:11:05;;;;;;;10.30;4.10;;;;;;;12.77;100.00;99443.65;104348;1266;61317;-56
2024/03/31 02:13:33;;;;;;;8.40;3.80;;;;;;;12.73;100.00;99443.15;104562;1257;75229;-58
2024/03/31 02:16:00;;;;;;;7.80;3.90;;;;;;;12.76;100.00;99450.05;104435;1270;70450;-55
2024/03/31 02:18:28;;;;;;;10.70;3.60;;;;;;;12.87;100.00;99447.85;104766;1257;71074;-57
2024/03/31 02:20:55;;;;;;;5.70;3.40;;;;;;;12.87;100.00;99445.40;104331;1254;62351;-56
2024/03/31 02:23:23;;;;;;;7.30;3.70;;;;;;;12.84;100.00;99439.38;104498;1254;60027;-55
2024/03/31 02:25:50;;;;;;;14.50;4.10;;;;;;;12.89;100.00;99436.86;104527;1257;74858;-56
2024/03/31 02:28:18;;;;;;;8.10;3.70;;;;;;;12.89;100.00;99438.09;104396;1258;69033;-56
2024/03/31 02:30:46;;;;;;;8.60;3.60;;;;;;;12.83;100.00;99436.63;104460;1256;72899;-56
2024/03/31 02:33:14;;;;;;;7.40;3.90;;;;;;;12.81;100.00;99436.71;104367;1257;61387;-56
2024/03/31 02:35:42;;;;;;;8.70;3.90;;;;;;;12.81;100.00;99435.17;104483;1253;60166;-56
2024/03/31 02:38:09;;;;;;;10.00;4.00;;;;;;;12.83;100.00;99437.88;104317;1257;73348;-55
2024/03/31 02:40:37;;;;;;;12.70;4.00;;;;;;;12.76;100.00;99442.98;104520;1260;69346;-55
2024/03/31 02:43:05;;;;;;;8.00;3.70;;;;;;;12.77;100.00;99441.17;104339;1257;72078;-56
2024/03/31 06:03:30;;;;;;;15.00;5.20;;;;;;;14.14;100.00;99505.92;101667;1294;601458;-56
2024/03/31 06:06:00;;;;;;;18.80;5.10;;;;;;;14.22;100.00;99504.95;103718;1272;61583;-61
2024/03/31 06:08:28;;;;;;;13.30;5.50;;;;;;;14.31;100.00;99503.17;104370;1259;60221;-56
2024/03/31 06:10:57;;;;;;;17.80;5.30;;;;;;;14.42;100.00;99504.10;104358;1265;72852;-57
2024/03/31 06:13:25;;;;;;;13.30;5.80;;;;;;;14.50;100.00;99501.48;103938;1266;73002;-57
2024/03/31 06:15:53;;;;;;;15.90;5.90;;;;;;;14.63;100.00;99497.55;104171;1266;71942;-57
2024/03/31 06:18:20;;;;;;;16.20;5.80;;;;;;;14.70;100.00;99497.85;103662;1264;62652;-57
2024/03/31 06:20:49;;;;;;;14.00;4.90;;;;;;;14.77;100.00;99491.89;104217;1258;61171;-55
2024/03/31 06:23:17;;;;;;;17.10;6.00;;;;;;;14.90;100.00;99494.65;104346;1272;74907;-56
2024/03/31 06:25:44;;;;;;;15.60;5.70;;;;;;;14.95;100.00;99494.44;104387;1263;69162;-56
2024/03/31 06:28:12;;;;;;;19.70;5.40;;;;;;;15.07;100.00;99494.44;104001;1279;72784;-58
2024/03/31 06:30:40;;;;;;;18.30;4.70;;;;;;;15.17;100.00;99494.48;104205;1258;61355;-57
2024/03/31 06:33:08;;;;;;;16.40;4.90;;;;;;;15.27;100.00;99494.38;104201;1256;61695;-57
2024/03/31 06:35:37;;;;;;;15.00;5.60;;;;;;;15.39;100.00;99493.48;104179;1270;74440;-57
2024/03/31 06:38:04;;;;;;;21.10;5.70;;;;;;;15.46;100.00;99490.14;104349;1259;69723;-56
2024/03/31 06:40:34;;;;;;;18.00;5.00;;;;;;;15.58;100.00;99488.68;104443;1257;73311;-56
2024/03/31 06:43:04;;;;;;;17.00;5.30;;;;;;;15.68;100.00;99487.84;104204;1263;62387;-56
2024/03/31 06:45:32;;;;;;;16.80;5.00;;;;;;;15.82;100.00;99483.89;104303;1257;60228;-56
2024/03/31 06:48:03;;;;;;;14.80;4.30;;;;;;;15.94;100.00;99486.15;104246;1256;74169;-57
2024/03/31 06:50:33;;;;;;;14.80;5.00;;;;;;;16.02;100.00;99486.66;104485;1257;69747;-58
2024/03/31 06:53:01;;;;;;;;;;;;;;;16.11;100.00;99486.73;104282;1273;73037;-60
2024/03/31 06:55:29;;;;;;;19.00;5.10;;;;;;;16.32;100.00;99487.22;104179;1265;61869;-57
2024/03/31 06:57:57;;;;;;;17.60;4.90;;;;;;;16.47;100.00;99492.08;103956;1260;61925;-58
2024/03/31 07:00:25;;;;;;;14.50;5.40;;;;;;;16.59;100.00;99485.56;104537;1265;73584;-56
2024/03/31 07:02:53;;;;;;;17.10;5.20;;;;;;;16.73;100.00;99482.48;103983;1273;69785;-56
2024/03/31 07:05:21;;;;;;;;;;;;;;;16.84;100.00;99483.83;104388;1257;72750;-57
2024/03/31 07:07:50;;;;;;;13.10;4.60;;;;;;;16.94;100.00;99482.75;104117;1266;61938;-56
2024/03/31 07:10:18;;;;;;;14.50;4.80;;;;;;;17.02;100.00;99487.82;105043;1257;60523;-56
2024/03/31 07:12:46;;;;;;;19.30;5.10;;;;;;;17.20;100.00;99478.24;104383;1262;74531;-56
2024/03/31 07:15:14;;;;;;;12.70;4.70;;;;;;;17.27;100.00;99475.98;104636;1263;69585;-55
2024/03/31 07:17:42;;;;;;;17.40;4.40;;;;;;;17.26;100.00;99478.84;104607;1262;72954;-57
2024/03/31 07:20:10;;;;;;;16.00;5.90;;;;;;;17.40;100.00;99483.34;104489;1263;61431;-57
2024/03/31 07:22:38;;;;;;;17.50;4.50;;;;;;;17.57;100.00;99488.10;104153;1273;60202;-60
2024/03/31 07:25:06;;;;;;;14.80;4.70;;;;;;;17.70;100.00;99483.63;104610;1263;73538;-57
2024/03/31 07:27:34;;;;;;;13.60;4.40;;;;;;;17.83;100.00;99487.23;104399;1263;69305;-57
2024/03/31 07:30:03;;;;;;;16.20;4.80;;;;;;;17.96;100.00;99485.78;104285;1266;72549;-57
2024/03/31 07:32:32;;;;;;;20.90;4.40;;;;;;;18.04;100.00;99486.55;104105;1256;61381;-56
2024/03/31 07:35:01;;;;;;;13.10;4.70;;;;;;;18.12;100.00;99487.20;104727;1258;65232;-58
2024/03/31 07:37:29;;;;;;;;;;;;;;;18.20;100.00;99487.46;104577;1257;75775;-57
2024/03/31 07:39:56;;;;;;;19.80;4.40;;;;;;;18.29;100.00;99488.05;104355;1263;69962;-57
2024/03/31 07:42:25;;;;;;;13.10;4.00;;;;;;;18.40;100.00;99487.55;104672;1265;73065;-57
2024/03/31 07:44:52;;;;;;;18.00;5.80;;;;;;;18.49;100.00;99490.42;104181;1268;61437;-57
2024/03/31 07:47:20;;;;;;;19.60;5.10;;;;;;;18.62;100.00;99491.50;104398;1257;61199;-61
2024/03/31 07:49:48;;;;;;;15.20;4.20;;;;;;;18.73;100.00;99492.23;104083;1267;73707;-56
2024/03/31 07:52:16;;;;;;;19.20;4.50;;;;;;;18.85;100.00;99490.73;104711;1262;69117;-56
2024/03/31 07:54:44;;;;;;;15.10;5.10;;;;;;;18.98;100.00;99492.01;104763;1257;71406;-56
2024/03/31 07:57:14;;;;;;;21.00;5.60;;;;;;;19.14;100.00;99492.02;104566;1265;66318;-57
2024/03/31 07:59:42;;;;;;;20.40;4.50;;;;;;;19.31;100.00;99489.04;104108;1264;60548;-56
2024/03/31 08:02:10;;;;;;;16.60;4.70;;;;;;;19.38;100.00;99479.39;104456;1269;73819;-57
2024/03/31 08:04:40;;;;;;;13.60;4.20;;;;;;;19.46;100.00;99477.45;104077;1263;69805;-56
2024/03/31 08:07:08;;;;;;;14.70;4.90;;;;;;;19.60;100.00;99483.29;104192;1260;74998;-58
2024/03/31 08:09:35;;;;;;;16.20;4.30;;;;;;;19.68;100.00;99486.31;104463;1262;61510;-57
2024/03/31 08:12:04;;;;;;;;;;;;;;;19.78;100.00;99485.70;104353;1260;60374;-56
2024/03/31 08:14:32;;;;;;;20.00;4.60;;;;;;;19.92;100.00;99479.25;104594;1273;73074;-57
2024/03/31 08:17:00;;;;;;;15.20;4.10;;;;;;;20.03;100.00;99476.67;103989;1264;72073;-57
2024/03/31 08:19:27;;;;;;;16.40;4.00;;;;;;;20.23;100.00;99476.58;105234;1263;72209;-57
2024/03/31 08:21:55;;;;;;;13.80;4.50;;;;;;;20.40;100.00;99477.48;105781;1260;62190;-56
2024/03/31 08:24:25;;;;;;;18.40;3.90;;;;;;;20.45;100.00;99465.47;104747;1263;61281;-57
2024/03/31 08:26:58;;;;;;;14.90;3.80;;;;;;;20.61;100.00;99474.45;104205;1266;75590;-56
2024/03/31 08:29:26;;;;;;;13.80;4.40;;;;;;;20.66;100.00;99468.95;105049;1257;69468;-56
2024/03/31 08:31:54;;;;;;;10.50;4.30;;;;;;;20.71;99.74;99467.52;104493;1266;74889;-56
2024/03/31 08:34:22;;;;;;;13.70;4.30;;;;;;;20.83;98.48;99464.66;105178;1257;61285;-56
2024/03/31 08:36:49;;;;;;;15.50;4.70;;;;;;;20.96;98.56;99470.98;105023;1265;60140;-55
2024/03/31 08:39:17;;;;;;;16.30;4.20;;;;;;;21.09;96.20;99471.09;107643;1256;72595;-56
2024/03/31 08:41:57;;;;;;;13.10;4.30;;;;;;;21.17;96.70;99472.69;107655;1262;70248;-55
2024/03/31 08:44:25;;;;;;;15.70;4.20;;;;;;;21.14;97.49;99477.44;107623;1257;72671;-55
2024/03/31 08:46:53;;;;;;;;;;;;;;;21.20;96.80;99477.25;107778;1257;61401;-56
2024/03/31 08:49:20;;;;;;;;;;;;;;;21.25;96.26;99471.30;107684;1257;60521;-56
2024/03/31 08:51:48;;;;;;;20.20;4.10;;;;;;;21.33;94.41;99465.56;107663;1257;74052;-55
2024/03/31 08:54:16;;;;;;;18.00;4.10;;;;;;;21.39;94.32;99465.01;107684;1257;69623;-55
2024/03/31 08:56:44;;;;;;;15.10;4.50;;;;;;;21.48;93.46;99465.67;107749;1257;71641;-56
2024/03/31 08:59:11;;;;;;;11.40;4.20;;;;;;;21.56;92.71;99465.84;107625;1259;60514;-55
2024/03/31 09:01:39;;;;;;;19.50;4.50;;;;;;;21.64;91.10;99463.67;107657;1260;59165;-55
2024/03/31 09:04:07;;;;;;;17.50;4.30;;;;;;;21.85;88.62;99462.09;107494;1258;72602;-56
2024/03/31 09:06:34;;;;;;;11.80;3.60;;;;;;;21.97;87.59;99460.39;107639;1257;70202;-55
2024/03/31 09:09:04;;;;;;;15.60;4.30;;;;;;;22.00;84.65;99453.38;107647;1257;72777;-55
2024/03/31 09:11:32;;;;;;;12.70;4.30;;;;;;;22.12;82.04;99461.37;107656;1258;61394;-56
2024/03/31 09:14:00;;;;;;;13.40;4.10;;;;;;;22.17;83.10;99457.81;107625;1257;60067;-55
2024/03/31 09:16:27;;;;;;;13.70;3.70;;;;;;;22.26;84.52;99456.16;107594;1257;72611;-56
2024/03/31 09:18:55;;;;;;;18.40;5.00;;;;;;;22.34;83.54;99449.81;107853;1257;69179;-56
2024/03/31 09:21:23;;;;;;;12.30;3.90;;;;;;;22.49;81.83;99451.61;107538;1261;73334;-56
2024/03/31 09:23:50;;;;;;;;;;;;;;;22.58;79.05;99454.58;107604;1257;61320;-56
2024/03/31 09:26:18;;;;;;;11.40;3.80;;;;;;;22.63;77.73;99452.66;107554;1257;58946;-56
2024/03/31 09:28:45;;;;;;;11.70;3.70;;;;;;;22.76;77.31;99457.26;107885;1259;74332;-56
2024/03/31 09:31:19;;;;;;;15.80;4.00;;;;;;;22.86;76.31;99450.38;107839;1256;69635;-56
2024/03/31 09:33:49;;;;;;;19.20;4.10;;;;;;;22.94;75.08;99446.54;107802;1258;72511;-56
2024/03/31 09:36:16;;;;;;;12.80;4.10;;;;;;;23.03;72.97;99451.60;107734;1257;59965;-56
2024/03/31 09:38:44;;;;;;;14.30;3.80;;;;;;;23.08;69.44;99446.84;107831;1258;59876;-56
2024/03/31 09:41:12;;;;;;;15.70;4.50;;;;;;;23.15;69.27;99441.38;107673;1256;74501;-57
2024/03/31 09:43:40;;;;;;;11.30;4.00;;;;;;;23.19;70.08;99433.08;107915;1255;68279;-56
2024/03/31 09:46:08;;;;;;;15.10;3.50;;;;;;;23.25;69.47;99438.77;107809;1257;74059;-56
2024/03/31 09:51:28;;;;;;;14.00;4.60;;;;;;;23.02;69.33;99440.76;101900;1292;601244;-55
2024/03/31 09:54:02;;;;;;;16.30;3.80;;;;;;;23.40;65.97;99439.77;103951;1266;59816;-58
2024/03/31 09:56:40;;;;;;;11.10;3.40;;;;;;;23.45;65.77;99438.77;104587;1257;60950;-57
2024/03/31 09:59:10;;;;;;;9.80;4.10;;;;;;;23.47;65.07;99437.61;104125;1278;71716;-57
2024/03/31 10:01:44;;;;;;;11.30;4.00;;;;;;;23.58;64.77;99430.98;104054;1261;68766;-58
2024/03/31 10:04:26;;;;;;;15.50;4.10;;;;;;;23.68;63.48;99431.96;103856;1254;908944;-57
2024/03/31 10:06:53;;;;;;;14.10;4.20;;;;;;;23.79;61.85;99432.13;105030;1254;60322;-56
2024/03/31 10:09:21;;;;;;;16.80;4.30;;;;;;;23.86;62.32;99428.17;104605;1254;59846;-56
2024/03/31 10:11:49;;;;;;;11.30;3.90;;;;;;;23.98;61.33;99422.19;105006;1260;73541;-55
2024/03/31 10:14:17;;;;;;;;;;;;;;;23.98;61.57;99420.90;104772;1254;68245;-56
2024/03/31 10:16:45;;;;;;;12.80;4.50;;;;;;;23.99;61.22;99419.30;104787;1254;72878;-55
2024/03/31 10:19:13;;;;;;;;;;;;;;;24.07;60.99;99419.90;104773;1254;60990;-56
2024/03/31 10:21:40;;;;;;;13.90;4.40;;;;;;;24.16;61.03;99418.56;105178;1257;60556;-55
2024/03/31 10:24:08;;;;;;;;;;;;;;;24.23;60.03;99418.27;104776;1254;73681;-55
2024/03/31 10:26:35;;;;;;;12.90;4.00;;;;;;;24.30;59.90;99419.36;104931;1254;72499;-55
2024/03/31 10:29:03;;;;;;;15.70;3.70;;;;;;;24.32;60.32;99414.51;104638;1254;73151;-55
2024/03/31 10:31:31;;;;;;;12.60;4.10;;;;;;;24.36;59.75;99413.75;105166;1256;62005;-56
2024/03/31 10:33:59;;;;;;;;;;;;;;;24.43;59.47;99410.10;104397;1259;59950;-56
2024/03/31 10:36:27;;;;;;;12.30;4.00;;;;;;;24.51;59.19;99407.72;104665;1257;72658;-56
2024/03/31 10:38:55;;;;;;;13.40;3.60;;;;;;;24.56;58.58;99406.30;104431;1276;69239;-55
2024/03/31 10:41:22;;;;;;;9.70;2.80;;;;;;;24.63;58.85;99402.79;104757;1257;71789;-55
2024/03/31 10:43:50;;;;;;;12.70;3.90;;;;;;;24.65;58.24;99400.39;104586;1257;60660;-54
2024/03/31 10:46:18;;;;;;;15.30;3.70;;;;;;;24.67;58.14;99399.98;104383;1255;60529;-55
2024/03/31 10:49:01;;;;;;;14.40;3.30;;;;;;;24.72;57.44;99395.52;104813;1259;73972;-55
2024/03/31 10:51:30;;;;;;;15.50;3.40;;;;;;;24.82;56.51;99392.43;104678;1260;70555;-56
2024/03/31 10:53:58;;;;;;;10.80;3.00;;;;;;;24.91;55.75;99381.29;104579;1255;72547;-56
2024/03/31 10:56:28;;;;;;;13.10;3.20;;;;;;;24.98;55.08;99375.84;104550;1270;60578;-56
2024/03/31 10:59:06;;;;;;;12.70;3.40;;;;;;;25.07;54.55;99373.47;104697;1254;60492;-56
2024/03/31 11:01:37;;;;;;;12.40;3.20;;;;;;;25.08;53.45;99368.55;105003;1257;73937;-56
2024/03/31 11:04:18;;;;;;;13.70;3.90;;;;;;;25.14;53.92;99366.63;104733;1260;69496;-56
2024/03/31 11:06:46;;;;;;;15.70;3.70;;;;;;;25.24;53.40;99352.63;104437;1273;72455;-54
2024/03/31 11:09:14;;;;;;;11.70;3.30;;;;;;;25.33;52.46;99352.04;104454;1254;60559;-55
2024/03/31 11:11:42;;;;;;;13.40;3.00;;;;;;;25.37;51.87;99352.84;104644;1272;59381;-55
2024/03/31 11:14:10;;;;;;;11.50;3.10;;;;;;;25.43;52.04;99349.35;104425;1259;74257;-54
2024/03/31 11:16:37;;;;;;;12.90;3.50;;;;;;;25.46;51.95;99345.95;104749;1258;69046;-55
2024/03/31 11:19:05;;;;;;;12.70;3.30;;;;;;;25.59;51.70;99341.98;105024;1258;73309;-56
2024/03/31 11:21:34;;;;;;;14.80;3.10;;;;;;;25.71;51.24;99338.89;104892;1256;60914;-56
2024/03/31 11:24:02;;;;;;;9.90;3.20;;;;;;;25.78;51.04;99338.14;104885;1254;60664;-56
2024/03/31 11:26:30;;;;;;;12.30;3.30;;;;;;;25.86;50.17;99336.51;104552;1260;73433;-57
2024/03/31 11:28:58;;;;;;;11.70;3.10;;;;;;;25.95;49.30;99324.80;104329;1256;70185;-56
2024/03/31 11:31:26;;;;;;;;;;;;;;;25.99;49.00;99321.42;104929;1254;72694;-57
2024/03/31 11:33:53;;;;;;;8.10;2.50;;;;;;;26.05;49.16;99320.09;104452;1257;60535;-57
2024/03/31 11:36:21;;;;;;;10.50;3.00;;;;;;;26.07;47.63;99316.41;104699;1257;60427;-59
2024/03/31 11:38:49;;;;;;;8.80;2.80;;;;;;;26.14;47.06;99313.45;105607;1260;76591;-57
2024/03/31 11:41:16;;;;;;;9.80;3.00;;;;;;;26.19;47.48;99317.42;105217;1256;69462;-57
2024/03/31 11:43:44;;;;;;;8.80;2.80;;;;;;;26.27;47.46;99317.55;104689;1260;72275;-56
2024/03/31 11:46:11;;;;;;;;;;;;;;;26.37;47.03;99310.43;104579;1257;60654;-57
2024/03/31 11:48:39;;;;;;;9.40;3.00;;;;;;;26.46;45.78;99311.61;104782;1253;60485;-57
2024/03/31 11:51:06;;;;;;;6.70;2.80;;;;;;;26.50;45.26;99299.15;104960;1254;73602;-57
2024/03/31 11:53:34;;;;;;;8.60;2.50;;;;;;;26.59;44.66;99307.80;105080;1260;69101;-56
2024/03/31 11:56:05;;;;;;;8.70;2.60;;;;;;;26.64;44.37;99303.48;105041;1258;73179;-56
2024/03/31 11:58:36;;;;;;;15.40;2.90;;;;;;;26.57;44.81;99301.61;104680;1270;60645;-55
2024/03/31 12:01:07;;;;;;;10.80;2.60;;;;;;;26.52;44.83;99295.26;104599;1257;60501;-55
2024/03/31 12:03:35;;;;;;;6.80;2.50;;;;;;;26.67;44.59;99288.80;104609;1263;73919;-56
2024/03/31 12:06:03;;;;;;;6.10;2.50;;;;;;;26.73;44.33;99286.06;104551;1260;70024;-56
2024/03/31 12:08:30;;;;;;;7.90;2.50;;;;;;;26.63;43.97;99286.56;105018;1254;72781;-55
2024/03/31 12:11:13;;;;;;;11.20;2.60;;;;;;;26.73;43.91;99283.58;104531;1255;60543;-56
2024/03/31 12:13:41;;;;;;;7.50;2.50;;;;;;;26.86;43.16;99284.52;104625;1254;60444;-55
2024/03/31 12:16:09;;;;;;;8.20;2.50;;;;;;;27.06;42.78;99286.70;106017;1251;73704;-55
2024/03/31 12:18:36;;;;;;;10.40;2.80;;;;;;;27.21;42.12;99286.29;105179;1251;70202;-56
2024/03/31 12:21:04;;;;;;;;;;;;;;;27.32;41.81;99283.84;105176;1254;73227;-55
2024/03/31 12:23:32;;;;;;;9.30;2.50;;;;;;;27.30;41.85;99281.61;104750;1256;60588;-55
2024/03/31 12:26:00;;;;;;;6.70;2.10;;;;;;;27.36;42.25;99277.98;105589;1252;60549;-56
2024/03/31 12:28:29;;;;;;;5.20;1.70;;;;;;;27.35;41.70;99274.88;105308;1254;73594;-55
2024/03/31 12:30:57;;;;;;;7.60;2.40;;;;;;;27.47;41.39;99277.77;105263;1257;70029;-56
2024/03/31 12:33:24;;;;;;;4.40;2.00;;;;;;;27.49;41.06;99277.52;105058;1252;75387;-56
2024/03/31 12:35:53;;;;;;;8.10;2.10;;;;;;;27.55;41.07;99276.86;104735;1257;62305;-56
2024/03/31 12:38:20;;;;;;;9.30;2.50;;;;;;;27.64;40.73;99274.13;105458;1251;60543;-55
2024/03/31 12:40:48;;;;;;;5.40;1.80;;;;;;;27.61;40.03;99271.04;105667;1254;74332;-56
2024/03/31 12:43:26;;;;;;;4.60;1.90;;;;;;;27.73;39.64;99267.27;104825;1259;69849;-56
2024/03/31 12:45:53;;;;;;;9.20;1.90;;;;;;;27.83;39.63;99270.57;104485;1257;72818;-55
2024/03/31 12:48:22;;;;;;;4.30;1.80;;;;;;;27.89;39.23;99267.10;104644;1257;60996;-59
2024/03/31 12:50:56;;;;;;;5.80;1.80;;;;;;;27.96;38.76;99270.49;105014;1254;60501;-55
2024/03/31 12:53:26;;;;;;;9.40;1.70;;;;;;;27.99;38.70;99268.99;105376;1253;73156;-55
2024/03/31 12:55:53;;;;;;;7.70;1.90;;;;;;;28.01;38.68;99272.89;105293;1257;69137;-55
2024/03/31 12:58:21;;;;;;;;;;;;;;;28.10;38.38;99269.42;104861;1251;73355;-56
2024/03/31 13:00:49;;;;;;;4.70;1.70;;;;;;;28.15;37.98;99267.54;104896;1257;60603;-56
2024/03/31 13:03:19;;;;;;;6.70;1.70;;;;;;;28.13;38.05;99262.19;105204;1254;60424;-56
2024/03/31 13:05:47;;;;;;;3.50;1.80;;;;;;;28.22;37.64;99257.06;105168;1256;72903;-56
2024/03/31 13:08:16;;;;;;;;;;;;;;;28.35;37.40;99261.30;104682;1257;69662;-56
2024/03/31 13:10:43;;;;;;;7.50;2.40;;;;;;;28.28;36.93;99254.56;105454;1252;72987;-55
2024/03/31 13:13:11;;;;;;;8.40;1.80;;;;;;;28.36;36.19;99247.16;104887;1257;60820;-55
2024/03/31 13:15:38;;;;;;;;;;;;;;;28.40;36.04;99247.95;105507;1254;60537;-54
2024/03/31 13:18:06;;;;;;;4.40;1.60;;;;;;;28.46;35.56;99241.82;104976;1251;72541;-56
2024/03/31 13:20:35;;;;;;;3.20;1.40;;;;;;;28.51;35.19;99237.60;104328;1257;69340;-57
2024/03/31 13:23:03;;;;;;;5.80;1.70;;;;;;;28.57;34.78;99238.27;104578;1258;72466;-56
2024/03/31 13:25:33;;;;;;;;;;;;;;;28.58;34.07;99230.24;105280;1252;60542;-57
2024/03/31 13:28:02;;;;;;;4.80;1.90;;;;;;;28.63;33.53;99224.23;104830;1257;61752;-56
2024/03/31 13:30:30;;;;;;;7.20;1.90;;;;;;;28.72;33.57;99219.61;105375;1256;73070;-56
2024/03/31 13:32:58;;;;;;;7.60;1.90;;;;;;;28.84;33.50;99216.89;104987;1256;69839;-55
2024/03/31 13:35:25;;;;;;;6.60;1.60;;;;;;;29.00;32.70;99213.91;105286;1253;73502;-56
2024/03/31 13:37:53;;;;;;;;;;;;;;;29.09;32.60;99214.00;104816;1257;60559;-54
2024/03/31 13:40:20;;;;;;;4.90;1.50;;;;;;;29.14;32.39;99215.59;104730;1253;60528;-56
2024/03/31 13:42:48;;;;;;;5.40;1.60;;;;;;;29.06;32.15;99214.38;104746;1257;73621;-56
2024/03/31 13:45:16;;;;;;;5.10;1.90;;;;;;;29.06;32.15;99213.34;104547;1256;69577;-56
2024/03/31 13:47:43;;;;;;;5.60;1.90;;;;;;;29.14;32.19;99210.08;104724;1253;73339;-55
2024/03/31 13:50:11;;;;;;;6.90;2.20;;;;;;;29.27;32.07;99205.83;104312;1255;60633;-56
2024/03/31 13:52:38;;;;;;;7.40;1.90;;;;;;;29.32;31.39;99205.44;104834;1257;61374;-56
2024/03/31 13:55:08;;;;;;;;;;;;;;;29.36;30.86;99206.51;104365;1273;72730;-56
2024/03/31 13:57:35;;;;;;;6.40;1.90;;;;;;;29.35;31.09;99202.96;104761;1257;70035;-56
2024/03/31 14:00:04;;;;;;;11.70;5.60;;;;;;;29.25;30.97;99199.56;104514;1260;72756;-56
2024/03/31 14:02:38;;;;;;;9.50;2.80;;;;;;;29.08;31.03;99201.00;104333;1265;61426;-56
2024/03/31 14:05:06;;;;;;;7.80;2.70;;;;;;;28.81;31.05;99193.07;104860;1257;61263;-55
2024/03/31 14:07:33;;;;;;;;;;;;;;;28.64;31.29;99192.20;104673;1254;77431;-55
2024/03/31 14:10:03;;;;;;;9.00;2.30;;;;;;;28.39;31.35;99183.70;105110;1257;70665;-55
2024/03/31 14:12:32;;;;;;;6.90;2.10;;;;;;;28.35;31.73;99182.07;104674;1256;73514;-55
2024/03/31 14:14:59;;;;;;;7.80;2.00;;;;;;;28.43;31.74;99178.23;104606;1251;61352;-55
2024/03/31 14:17:27;;;;;;;;;;;;;;;28.43;31.67;99177.79;104546;1257;61243;-55
2024/03/31 14:19:56;;;;;;;6.30;1.90;;;;;;;28.58;31.69;99174.92;104690;1267;74787;-55
2024/03/31 14:22:23;;;;;;;;;;;;;;;28.67;31.49;99172.48;105899;1251;69956;-56
2024/03/31 14:24:51;;;;;;;;;;;;;;;28.58;31.70;99172.59;105458;1253;72644;-55
2024/03/31 14:27:19;;;;;;;6.90;1.70;;;;;;;28.48;31.72;99171.92;104850;1257;60796;-55
2024/03/31 14:29:47;;;;;;;5.20;1.90;;;;;;;28.39;31.82;99173.80;105077;1251;61323;-56
2024/03/31 14:32:14;;;;;;;;;;;;;;;28.24;31.93;99174.09;104488;1257;74561;-55
2024/03/31 14:34:42;;;;;;;9.60;1.90;;;;;;;28.09;31.86;99170.81;104630;1251;69625;-55
2024/03/31 14:37:09;;;;;;;5.80;1.90;;;;;;;27.98;32.11;99168.98;104701;1254;74921;-54
2024/03/31 14:39:37;;;;;;;9.80;1.90;;;;;;;27.81;32.28;99169.65;104822;1257;61256;-56
2024/03/31 14:42:05;;;;;;;6.10;2.10;;;;;;;27.62;32.64;99164.55;104452;1260;61407;-55
2024/03/31 14:44:33;;;;;;;5.10;2.20;;;;;;;27.44;32.75;99168.70;105613;1251;73790;-57
2024/03/31 14:47:01;;;;;;;6.60;2.20;;;;;;;27.34;32.92;99163.49;104842;1253;69648;-55
2024/03/31 14:49:28;;;;;;;5.20;2.10;;;;;;;27.17;33.52;99167.25;104862;1256;74624;-54